createdAt,value
2018-07-04T00:01:33.288Z,23.50
2018-07-04T00:04:14.804Z,23.40
2018-07-04T00:06:57.444Z,23.30
2018-07-04T00:09:39.002Z,23.40
2018-07-04T00:12:20.444Z,23.40
2018-07-04T00:15:02.408Z,23.40
2018-07-04T00:17:44.211Z,23.50
2018-07-04T00:20:56.309Z,23.40
2018-07-04T00:23:37.880Z,23.50
2018-07-04T00:26:19.701Z,23.60
2018-07-04T00:29:01.705Z,23.70
2018-07-04T00:31:43.460Z,23.70
2018-07-04T00:34:25.330Z,23.70
2018-07-04T00:37:07.016Z,23.80
2018-07-04T00:39:48.660Z,23.80
2018-07-04T00:42:30.235Z,23.90
2018-07-04T00:45:12.140Z,23.90
2018-07-04T00:47:53.715Z,24.00
2018-07-04T00:50:35.517Z,24.00
2018-07-04T00:53:16.879Z,24.10
2018-07-04T00:55:58.889Z,24.10
2018-07-04T00:58:40.460Z,24.10
2018-07-04T01:01:22.495Z,24.20
2018-07-04T01:04:04.608Z,24.20
2018-07-04T01:06:46.079Z,24.20
2018-07-04T01:09:27.727Z,24.20
2018-07-04T01:12:09.467Z,24.20
2018-07-04T01:14:51.231Z,24.10
2018-07-04T01:17:32.651Z,24.20
2018-07-04T01:20:14.272Z,24.30
2018-07-04T01:22:55.722Z,24.30
2018-07-04T01:25:37.263Z,24.30
2018-07-04T01:28:19.108Z,24.30
2018-07-04T01:31:01.240Z,24.30
2018-07-04T01:33:43.629Z,24.30
2018-07-04T01:36:25.282Z,24.30
2018-07-04T01:39:07.286Z,24.30
2018-07-04T01:41:49.014Z,24.30
2018-07-04T01:44:30.879Z,24.30
2018-07-04T01:49:47.894Z,24.30
2018-07-04T01:52:28.917Z,24.20
2018-07-04T01:55:10.263Z,24.20
2018-07-04T01:57:52.133Z,24.10
2018-07-04T02:00:33.554Z,24.10
2018-07-04T02:03:15.106Z,24.10
2018-07-04T02:05:56.722Z,24.10
2018-07-04T02:08:38.049Z,24.10
2018-07-04T02:11:19.875Z,24.10
2018-07-04T02:14:01.835Z,24.00
2018-07-04T02:16:42.774Z,24.00
2018-07-04T02:19:24.642Z,24.00
2018-07-04T02:22:06.037Z,24.00
2018-07-04T02:24:47.600Z,24.00
2018-07-04T02:27:29.389Z,24.00
2018-07-04T02:30:10.880Z,23.90
2018-07-04T02:32:52.879Z,23.80
2018-07-04T02:35:34.849Z,23.80
2018-07-04T02:38:16.598Z,23.80
2018-07-04T02:40:58.772Z,23.70
2018-07-04T02:43:40.002Z,23.70
2018-07-04T02:46:26.056Z,23.60
2018-07-04T02:49:07.614Z,23.60
2018-07-04T02:51:49.006Z,23.50
2018-07-04T02:54:30.401Z,23.50
2018-07-04T02:57:11.636Z,23.40
2018-07-04T02:59:53.405Z,23.40
2018-07-04T03:02:35.148Z,23.30
2018-07-04T03:05:17.171Z,23.30
2018-07-04T03:07:59.057Z,23.20
2018-07-04T03:10:40.433Z,23.10
2018-07-04T03:13:22.632Z,23.10
2018-07-04T03:16:04.421Z,23.00
2018-07-04T03:18:45.291Z,22.90
2018-07-04T03:21:27.074Z,22.80
2018-07-04T03:24:08.431Z,22.80
2018-07-04T03:26:50.264Z,22.60
2018-07-04T03:29:31.621Z,22.60
2018-07-04T03:32:13.446Z,22.50
2018-07-04T03:34:55.868Z,22.40
2018-07-04T03:37:37.575Z,22.30
2018-07-04T03:40:18.721Z,22.20
2018-07-04T03:43:00.603Z,22.10
2018-07-04T03:45:42.343Z,22.00
2018-07-04T03:48:24.179Z,21.90
2018-07-04T03:51:05.579Z,21.90
2018-07-04T03:53:47.351Z,21.80
2018-07-04T03:56:28.969Z,21.70
2018-07-04T03:59:11.123Z,21.60
2018-07-04T04:01:52.751Z,21.50
2018-07-04T04:04:34.505Z,21.50
2018-07-04T04:07:16.535Z,21.40
2018-07-04T04:09:57.915Z,21.30
2018-07-04T04:12:39.294Z,21.20
2018-07-04T04:15:20.670Z,21.10
2018-07-04T04:18:02.573Z,21.00
2018-07-04T04:20:44.328Z,20.90
2018-07-04T04:23:25.270Z,20.90
2018-07-04T04:26:06.663Z,20.80
2018-07-04T04:28:48.554Z,20.80
2018-07-04T04:31:30.023Z,20.70
2018-07-04T04:34:11.788Z,20.60
2018-07-04T04:36:53.983Z,20.50
2018-07-04T04:39:35.774Z,20.50
2018-07-04T04:42:16.732Z,20.40
2018-07-04T04:44:57.594Z,20.30
2018-07-04T04:47:38.912Z,20.20
2018-07-04T04:50:20.096Z,20.20
2018-07-04T04:53:01.487Z,20.10
2018-07-04T04:55:43.065Z,20.10
2018-07-04T04:58:24.817Z,20.00
2018-07-04T05:01:06.443Z,19.90
2018-07-04T05:06:24.169Z,19.80
2018-07-04T05:09:05.968Z,19.80
2018-07-04T05:11:47.768Z,19.70
2018-07-04T05:14:29.984Z,19.70
2018-07-04T05:17:11.740Z,19.60
2018-07-04T05:19:53.758Z,19.60
2018-07-04T05:22:35.712Z,19.60
2018-07-04T05:25:17.524Z,19.50
2018-07-04T05:27:59.094Z,19.40
2018-07-04T05:30:40.699Z,19.40
2018-07-04T05:33:22.198Z,19.30
2018-07-04T05:36:04.044Z,19.30
2018-07-04T05:38:45.770Z,19.20
2018-07-04T05:41:27.184Z,19.20
2018-07-04T05:44:09.046Z,19.10
2018-07-04T05:46:51.030Z,19.10
2018-07-04T05:49:32.633Z,19.00
2018-07-04T05:52:13.990Z,18.90
2018-07-04T05:54:55.690Z,18.90
2018-07-04T05:57:37.486Z,18.80
2018-07-04T06:00:18.710Z,18.80
2018-07-04T06:03:00.452Z,18.70
2018-07-04T06:05:42.440Z,18.70
2018-07-04T06:08:24.576Z,18.60
2018-07-04T06:11:05.780Z,18.60
2018-07-04T06:13:47.089Z,18.50
2018-07-04T06:16:29.741Z,18.50
2018-07-04T06:19:11.133Z,18.40
2018-07-04T06:21:52.772Z,18.30
2018-07-04T06:24:34.291Z,18.30
2018-07-04T06:27:15.688Z,18.20
2018-07-04T06:29:57.545Z,18.20
2018-07-04T06:32:39.345Z,18.10
2018-07-04T06:35:20.949Z,18.00
2018-07-04T06:37:50.856Z,18.00
2018-07-04T06:40:20.762Z,18.00
2018-07-04T06:42:50.267Z,17.90
2018-07-04T06:45:19.975Z,17.80
2018-07-04T06:47:49.482Z,17.80
2018-07-04T06:50:18.977Z,17.70
2018-07-04T06:52:48.611Z,17.70
2018-07-04T06:55:19.339Z,17.60
2018-07-04T06:57:48.659Z,17.60
2018-07-04T07:00:18.583Z,17.50
2018-07-04T07:02:48.072Z,17.50
2018-07-04T07:05:29.694Z,17.40
2018-07-04T07:08:11.211Z,17.30
2018-07-04T07:10:52.843Z,17.30
2018-07-04T07:13:34.617Z,17.20
2018-07-04T07:16:16.223Z,17.10
2018-07-04T07:18:57.773Z,17.10
2018-07-04T07:21:39.560Z,17.00
2018-07-04T07:24:20.962Z,17.00
2018-07-04T07:27:02.540Z,16.90
2018-07-04T07:29:43.928Z,16.90
2018-07-04T07:32:25.741Z,16.80
2018-07-04T07:35:07.518Z,16.70
2018-07-04T07:37:49.424Z,16.60
2018-07-04T07:40:31.366Z,16.50
2018-07-04T07:43:13.002Z,16.50
2018-07-04T07:45:54.567Z,16.40
2018-07-04T07:48:36.401Z,16.40
2018-07-04T07:51:18.391Z,16.30
2018-07-04T07:54:00.242Z,16.20
2018-07-04T07:56:41.933Z,16.20
2018-07-04T07:59:23.535Z,16.10
2018-07-04T08:02:05.317Z,16.00
2018-07-04T08:04:47.038Z,15.90
2018-07-04T08:07:28.417Z,15.70
2018-07-04T08:10:10.000Z,15.70
2018-07-04T08:12:51.376Z,15.60
2018-07-04T08:15:33.146Z,15.50
2018-07-04T08:18:14.761Z,15.40
2018-07-04T08:20:56.326Z,15.30
2018-07-04T08:23:37.502Z,15.20
2018-07-04T08:26:19.098Z,15.20
2018-07-04T08:29:00.656Z,15.20
2018-07-04T08:31:42.290Z,15.10
2018-07-04T08:34:23.859Z,15.10
2018-07-04T08:37:05.436Z,15.00
2018-07-04T08:39:47.046Z,15.00
2018-07-04T08:42:28.901Z,15.00
2018-07-04T08:45:10.211Z,14.90
2018-07-04T08:47:51.891Z,14.80
2018-07-04T08:50:33.740Z,14.80
2018-07-04T08:53:15.477Z,14.80
2018-07-04T08:55:57.267Z,14.80
2018-07-04T08:58:39.210Z,14.70
2018-07-04T09:01:20.727Z,14.70
2018-07-04T09:04:02.351Z,14.60
2018-07-04T09:06:43.915Z,14.60
2018-07-04T09:09:26.171Z,14.50
2018-07-04T09:12:07.548Z,14.50
2018-07-04T09:14:49.215Z,14.50
2018-07-04T09:17:32.072Z,14.50
2018-07-04T09:20:13.667Z,14.40
2018-07-04T09:22:55.282Z,14.40
2018-07-04T09:25:36.900Z,14.40
2018-07-04T09:28:18.865Z,14.40
2018-07-04T09:31:00.348Z,14.40
2018-07-04T09:33:41.478Z,14.30
2018-07-04T09:36:23.474Z,14.40
2018-07-04T09:39:05.060Z,14.30
2018-07-04T09:41:46.645Z,14.40
2018-07-04T09:44:28.390Z,14.30
2018-07-04T09:47:10.007Z,14.30
2018-07-04T09:49:51.783Z,14.30
2018-07-04T09:52:33.793Z,14.30
2018-07-04T09:55:15.577Z,14.30
2018-07-04T09:57:56.998Z,14.30
2018-07-04T10:00:43.287Z,14.30
2018-07-04T10:03:25.056Z,14.30
2018-07-04T10:06:06.642Z,14.40
2018-07-04T10:08:48.342Z,14.40
2018-07-04T10:11:30.372Z,14.40
2018-07-04T10:14:12.126Z,14.50
2018-07-04T10:16:53.894Z,14.50
2018-07-04T10:19:35.500Z,14.50
2018-07-04T10:22:16.909Z,14.50
2018-07-04T10:24:58.662Z,14.50
2018-07-04T10:27:40.245Z,14.50
2018-07-04T10:30:21.851Z,14.50
2018-07-04T10:33:03.440Z,14.50
2018-07-04T10:35:45.048Z,14.60
2018-07-04T10:38:26.589Z,14.60
2018-07-04T10:41:08.381Z,14.60
2018-07-04T10:43:50.000Z,14.60
2018-07-04T10:46:32.176Z,14.60
2018-07-04T10:49:13.599Z,14.60
2018-07-04T10:51:55.194Z,14.60
2018-07-04T10:54:36.919Z,14.70
2018-07-04T10:57:18.397Z,14.70
2018-07-04T11:00:00.331Z,14.70
2018-07-04T11:02:41.922Z,14.60
2018-07-04T11:05:23.495Z,14.70
2018-07-04T11:08:04.823Z,14.70
2018-07-04T11:10:46.187Z,14.80
2018-07-04T11:13:27.782Z,14.80
2018-07-04T11:16:09.367Z,14.80
2018-07-04T11:18:51.164Z,14.80
2018-07-04T11:21:32.942Z,14.80
2018-07-04T11:24:14.526Z,14.90
2018-07-04T11:26:56.324Z,14.90
2018-07-04T11:29:37.912Z,14.90
2018-07-04T11:32:19.745Z,14.90
2018-07-04T11:35:01.306Z,15.00
2018-07-04T11:37:43.061Z,15.00
2018-07-04T11:40:24.638Z,15.00
2018-07-04T11:43:05.887Z,15.00
2018-07-04T11:45:47.426Z,15.00
2018-07-04T11:48:17.155Z,15.00
2018-07-04T11:50:46.853Z,15.10
2018-07-04T11:53:16.490Z,15.00
2018-07-04T11:55:45.972Z,15.10
2018-07-04T11:58:16.004Z,15.10
2018-07-04T12:00:45.922Z,15.10
2018-07-04T12:03:21.254Z,15.10
2018-07-04T12:06:02.826Z,15.10
2018-07-04T12:08:32.536Z,15.10
2018-07-04T12:11:03.043Z,15.10
2018-07-04T12:13:32.734Z,15.10
2018-07-04T12:16:02.452Z,15.10
2018-07-04T12:18:32.613Z,15.10
2018-07-04T12:23:32.043Z,15.10
2018-07-04T12:26:01.521Z,15.10
2018-07-04T12:28:31.132Z,15.10
2018-07-04T12:31:00.652Z,15.10
2018-07-04T12:33:30.324Z,15.20
2018-07-04T12:36:00.025Z,15.20
2018-07-04T12:38:29.576Z,15.20
2018-07-04T12:40:59.467Z,15.20
2018-07-04T12:43:29.033Z,15.20
2018-07-04T12:45:58.893Z,15.20
2018-07-04T12:48:28.566Z,15.20
2018-07-04T12:50:59.578Z,15.20
2018-07-04T12:53:29.836Z,15.20
2018-07-04T12:56:11.597Z,15.20
2018-07-04T12:58:53.000Z,15.20
2018-07-04T13:01:34.778Z,15.20
2018-07-04T13:04:16.576Z,15.20
2018-07-04T13:06:58.174Z,15.30
2018-07-04T13:09:39.540Z,15.30
2018-07-04T13:12:21.129Z,15.30
2018-07-04T13:15:02.724Z,15.40
2018-07-04T13:17:44.416Z,15.40
2018-07-04T13:20:26.199Z,15.40
2018-07-04T13:23:07.798Z,15.50
2018-07-04T13:25:49.603Z,15.50
2018-07-04T13:28:31.431Z,15.50
2018-07-04T13:31:12.759Z,15.60
2018-07-04T13:33:54.573Z,15.60
2018-07-04T13:36:36.342Z,15.60
2018-07-04T13:41:53.778Z,15.70
2018-07-04T13:44:35.387Z,15.80
2018-07-04T13:47:17.011Z,15.80
2018-07-04T13:49:59.493Z,15.90
2018-07-04T13:52:41.244Z,15.90
2018-07-04T13:55:22.683Z,16.00
2018-07-04T13:58:05.472Z,16.10
2018-07-04T14:00:47.056Z,16.20
2018-07-04T14:03:28.682Z,16.40
2018-07-04T14:06:10.018Z,16.50
2018-07-04T14:08:51.806Z,16.60
2018-07-04T14:11:33.796Z,16.80
2018-07-04T14:14:15.177Z,16.90
2018-07-04T14:16:56.968Z,17.00
2018-07-04T14:19:38.692Z,17.20
2018-07-04T14:22:20.087Z,17.40
2018-07-04T14:25:01.426Z,17.50
2018-07-04T14:27:42.637Z,17.70
2018-07-04T14:30:24.198Z,17.90
2018-07-04T14:33:05.800Z,18.00
2018-07-04T14:35:47.379Z,18.20
2018-07-04T14:38:29.393Z,18.30
2018-07-04T14:41:11.167Z,18.20
2018-07-04T14:43:52.820Z,18.20
2018-07-04T14:46:34.549Z,18.20
2018-07-04T14:49:16.134Z,18.40
2018-07-04T14:51:58.025Z,18.40
2018-07-04T14:54:39.821Z,18.60
2018-07-04T14:57:21.393Z,18.90
2018-07-04T15:00:02.821Z,19.20
2018-07-04T15:02:44.490Z,19.60
2018-07-04T15:05:26.117Z,20.00
2018-07-04T15:08:07.861Z,20.40
2018-07-04T15:10:49.464Z,20.80
2018-07-04T15:13:31.901Z,21.30
2018-07-04T15:16:13.295Z,21.70
2018-07-04T15:18:55.634Z,21.90
2018-07-04T15:21:37.051Z,22.00
2018-07-04T15:24:18.407Z,22.20
2018-07-04T15:27:00.203Z,22.20
2018-07-04T15:29:42.201Z,22.20
2018-07-04T15:32:23.992Z,22.30
2018-07-04T15:35:05.198Z,22.20
2018-07-04T15:37:46.959Z,22.30
2018-07-04T15:40:28.582Z,22.40
2018-07-04T15:43:10.172Z,22.50
2018-07-04T15:45:51.718Z,22.60
2018-07-04T15:48:33.615Z,22.50
2018-07-04T15:51:14.999Z,22.50
2018-07-04T15:53:57.004Z,22.50
2018-07-04T15:56:38.778Z,22.50
2018-07-04T15:59:20.398Z,22.60
2018-07-04T16:02:01.972Z,22.70
2018-07-04T16:04:43.670Z,22.80
2018-07-04T16:07:25.054Z,22.90
2018-07-04T16:10:06.634Z,23.10
2018-07-04T16:12:48.132Z,23.30
2018-07-04T16:15:29.761Z,23.60
2018-07-04T16:18:11.655Z,23.80
2018-07-04T16:23:29.796Z,24.20
2018-07-04T16:26:11.973Z,24.20
2018-07-04T16:28:53.974Z,24.30
2018-07-04T16:31:35.974Z,24.50
2018-07-04T16:34:17.734Z,24.70
2018-07-04T16:36:59.138Z,24.80
2018-07-04T16:39:40.506Z,24.70
2018-07-04T16:42:22.505Z,24.90
2018-07-04T16:45:04.108Z,25.00
2018-07-04T16:47:45.671Z,24.90
2018-07-04T16:50:27.285Z,25.10
2018-07-04T16:53:08.867Z,25.20
2018-07-04T16:55:50.739Z,25.00
2018-07-04T16:58:32.753Z,25.10
2018-07-04T17:01:14.355Z,25.10
2018-07-04T17:03:56.157Z,25.30
2018-07-04T17:06:37.905Z,25.10
2018-07-04T17:09:19.717Z,25.10
2018-07-04T17:12:01.472Z,25.10
2018-07-04T17:14:43.126Z,25.20
2018-07-04T17:17:25.288Z,25.40
2018-07-04T17:20:07.138Z,25.50
2018-07-04T17:22:49.298Z,25.50
2018-07-04T17:25:31.606Z,25.70
2018-07-04T17:28:13.081Z,25.70
2018-07-04T17:30:54.884Z,25.80
2018-07-04T17:33:36.468Z,25.80
2018-07-04T17:36:18.038Z,25.80
2018-07-04T17:38:59.873Z,25.80
2018-07-04T17:41:41.452Z,26.00
2018-07-04T17:44:23.223Z,26.00
2018-07-04T17:47:05.070Z,26.00
2018-07-04T17:49:47.019Z,25.80
2018-07-04T17:52:29.105Z,25.70
2018-07-04T17:55:10.993Z,25.90
2018-07-04T17:57:53.047Z,25.90
2018-07-04T18:00:34.395Z,25.90
2018-07-04T18:03:16.193Z,26.00
2018-07-04T18:05:57.786Z,26.20
2018-07-04T18:08:39.367Z,26.10
2018-07-04T18:11:21.318Z,26.30
2018-07-04T18:14:03.373Z,26.20
2018-07-04T18:16:44.914Z,26.30
2018-07-04T18:19:26.969Z,26.80
2018-07-04T18:22:09.113Z,27.00
2018-07-04T18:24:50.539Z,27.00
2018-07-04T18:27:32.697Z,27.00
2018-07-04T18:30:14.277Z,27.20
2018-07-04T18:32:56.182Z,27.50
2018-07-04T18:35:37.826Z,27.60
2018-07-04T18:38:19.755Z,27.80
2018-07-04T18:41:01.817Z,27.40
2018-07-04T18:43:43.566Z,27.90
2018-07-04T18:46:25.231Z,27.80
2018-07-04T18:49:07.027Z,27.50
2018-07-04T18:51:48.548Z,27.40
2018-07-04T18:54:30.541Z,27.50
2018-07-04T18:57:12.324Z,27.60
2018-07-04T18:59:54.936Z,27.20
2018-07-04T19:02:36.566Z,27.60
2018-07-04T19:05:18.197Z,27.90
2018-07-04T19:08:01.350Z,28.10
2018-07-04T19:10:43.356Z,28.30
2018-07-04T19:13:25.370Z,28.20
2018-07-04T19:16:07.337Z,28.20
2018-07-04T19:18:48.928Z,28.20
2018-07-04T19:21:30.518Z,28.30
2018-07-04T19:24:12.126Z,28.50
2018-07-04T19:26:53.888Z,28.20
2018-07-04T19:29:35.497Z,27.90
2018-07-04T19:32:17.285Z,27.80
2018-07-04T19:34:59.242Z,27.60
2018-07-04T19:37:40.865Z,27.60
2018-07-04T19:40:23.071Z,27.80
2018-07-04T19:43:04.849Z,27.60
2018-07-04T19:45:46.476Z,27.50
2018-07-04T19:48:27.909Z,27.50
2018-07-04T19:51:09.237Z,27.40
2018-07-04T19:53:51.072Z,27.20
2018-07-04T19:56:32.517Z,27.00
2018-07-04T19:59:14.430Z,27.10
2018-07-04T20:01:56.680Z,27.10
2018-07-04T20:04:38.242Z,27.30
2018-07-04T20:07:19.646Z,27.40
2018-07-04T20:10:00.999Z,27.40
2018-07-04T20:12:42.630Z,27.60
2018-07-04T20:15:24.055Z,28.00
2018-07-04T20:18:06.129Z,28.00
2018-07-04T20:20:47.854Z,28.20
2018-07-04T20:23:29.350Z,28.00
2018-07-04T20:26:11.074Z,28.10
2018-07-04T20:28:52.734Z,28.00
2018-07-04T20:31:34.154Z,28.10
2018-07-04T20:34:15.909Z,28.00
2018-07-04T20:36:57.704Z,28.40
2018-07-04T20:39:39.209Z,28.10
2018-07-04T20:42:21.218Z,28.20
2018-07-04T20:45:03.214Z,28.40
2018-07-04T20:47:44.648Z,28.60
2018-07-04T20:50:26.583Z,28.70
2018-07-04T20:53:08.392Z,28.60
2018-07-04T20:55:50.184Z,28.60
2018-07-04T20:58:32.198Z,28.60
2018-07-04T21:01:13.993Z,28.90
2018-07-04T21:03:56.108Z,29.10
2018-07-04T21:06:37.854Z,29.10
2018-07-04T21:09:19.749Z,28.80
2018-07-04T21:12:01.563Z,28.80
2018-07-04T21:14:43.825Z,28.90
2018-07-04T21:17:25.415Z,29.10
2018-07-04T21:20:07.622Z,29.20
2018-07-04T21:22:49.644Z,29.30
2018-07-04T21:25:31.412Z,29.30
2018-07-04T21:28:13.412Z,29.40
2018-07-04T21:30:55.229Z,29.30
2018-07-04T21:33:37.097Z,29.40
2018-07-04T21:36:18.818Z,29.50
2018-07-04T21:39:01.002Z,29.30
2018-07-04T21:41:42.900Z,29.30
2018-07-04T21:44:24.701Z,29.00
2018-07-04T21:47:06.690Z,29.20
2018-07-04T21:49:53.444Z,29.30
2018-07-04T21:55:11.364Z,29.20
2018-07-04T21:57:53.077Z,29.20
2018-07-04T22:00:34.656Z,29.30
2018-07-04T22:03:16.650Z,29.20
2018-07-04T22:05:59.248Z,29.40
2018-07-04T22:08:41.248Z,29.40
2018-07-04T22:11:23.445Z,29.30
2018-07-04T22:14:05.210Z,29.50
2018-07-04T22:16:46.819Z,29.70
2018-07-04T22:19:28.619Z,29.80
2018-07-04T22:22:11.001Z,29.80
2018-07-04T22:24:52.919Z,29.90
2018-07-04T22:27:34.528Z,30.00
2018-07-04T22:30:16.253Z,29.90
2018-07-04T22:32:58.259Z,29.70
2018-07-04T22:35:39.269Z,29.60
2018-07-04T22:38:21.051Z,29.70
2018-07-04T22:41:03.037Z,29.70
2018-07-04T22:43:45.099Z,29.70
2018-07-04T22:46:26.433Z,29.50
2018-07-04T22:49:08.402Z,29.40
2018-07-04T22:51:49.986Z,29.20
2018-07-04T22:54:31.519Z,29.10
2018-07-04T22:57:13.476Z,28.90
2018-07-04T22:59:55.072Z,28.70
2018-07-04T23:02:36.704Z,28.60
2018-07-04T23:05:18.450Z,28.60
2018-07-04T23:08:00.652Z,28.60
2018-07-04T23:10:42.272Z,28.40
2018-07-04T23:13:23.801Z,28.20
2018-07-04T23:16:05.651Z,28.00
2018-07-04T23:18:47.204Z,27.90
2018-07-04T23:21:29.044Z,27.70
2018-07-04T23:24:10.598Z,27.60
2018-07-04T23:26:52.281Z,27.60
2018-07-04T23:29:34.142Z,27.60
2018-07-04T23:32:16.158Z,27.40
2018-07-04T23:34:57.851Z,27.20
2018-07-04T23:37:39.537Z,27.00
2018-07-04T23:40:20.930Z,26.80
2018-07-04T23:43:02.645Z,26.60
2018-07-04T23:45:44.421Z,26.50
2018-07-04T23:48:26.169Z,26.20
2018-07-04T23:51:07.977Z,26.20
2018-07-04T23:53:50.239Z,26.10
2018-07-04T23:56:31.645Z,26.10
2018-07-04T23:59:13.405Z,25.90
